KCVS/CVS METAR and TAF weather

Enter ICAO airport designator
Station Type Date Time Source
KCVS METAR 2019/04/19 22:58 UTC NOAA

KCVS 192258Z AUTO 21011G15KT 10SM CLR 23/M01 A3011 RMK AO2 SLPNO T02271014 $


Station Type Date Time Source
KCVS Decoded METAR 2019/04/19 22:58 UTC NOAA

Cannon Air Force Base / Clovis, NM, United States (KCVS) 34-23N 103-19W
Apr 19, 2019 - 06:58 PM EDT / 2019.04.19 2258 UTC
Wind: from the SSW (210 degrees) at 13 MPH (11 KT) gusting to 17 MPH (15 KT):0
Visibility: 10 mile(s):0
Sky conditions: clear
Temperature: 72.9 F (22.7 C)
Dew Point: 29.5 F (-1.4 C)
Relative Humidity: 19%
Pressure (altimeter): 30.11 in. Hg (1019 hPa)
ob: KCVS 192258Z AUTO 21011G15KT 10SM CLR 23/M01 A3011 RMK AO2 SLPNO T02271014
cycle: 23

Station Type Date Time Source
KCVS TAF 2019/04/19 18:09 UTC NOAA

TAF KCVS 191800Z 1918/2100 22010G15KT 9999 SKC QNH3016INS
BECMG 1922/1923 21008KT 9999 SKC QNH3012INS
BECMG 2002/2003 VRB06KT 9999 SKC QNH3005INS TX22/1921Z TN05/2012Z

Example: see airport list